aviador You're here:

GCTS Decoded Metar

TENERIFE in SPAIN
Report Time2017-11-22 21:30:00
UTC Time2017-11-22 21:55:59
Flight Rules vfr VFR
Wind060° at 06 kt
W.Decomp.*RWY 08: 5.8 kt HW 1.5 kt LCW
W.Rank060° ranks 3
Current wind is below 060° avg. (12.4)
Visibility9999 m
Phenomena:N/A
Clouds:N/A
Expected CloudBase > 2,400 ft AGL from Temp-Dew spread
CeilingNone
Temp20°C (ISA +5)
Dew Point14°C (69% RH)
AAT19.1°C
QNH1014 hPa
Density Alt1,056 ft
Elevation236 ft
Report Wrong Elevation
Raw Report
GCTS 222130Z 06006KT CAVOK 20/14 Q1014 NOSIG=

Extra information for GCTS:More info

Metar Taf Metar & Taf Last 4 Metars F.Rules Stats Wind Profile Meteogram Temp Stats Airport Information Weather charts Add Link Nearby VenuesMetar ALERT Operation Metar Decoded Social comments